createdAt,value
2018-05-14T00:00:10.632Z,73.10
2018-05-14T00:02:38.917Z,74.40
2018-05-14T00:05:07.461Z,73.90
2018-05-14T00:07:35.853Z,74.10
2018-05-14T00:10:04.135Z,74.40
2018-05-14T00:12:32.472Z,75.20
2018-05-14T00:15:00.756Z,75.20
2018-05-14T00:17:29.855Z,76.10
2018-05-14T00:19:58.901Z,75.30
2018-05-14T00:22:27.236Z,75.30
2018-05-14T00:24:55.569Z,73.30
2018-05-14T00:27:24.000Z,73.50
2018-05-14T00:29:52.295Z,72.90
2018-05-14T00:32:20.628Z,72.90
2018-05-14T00:34:48.983Z,72.10
2018-05-14T00:37:17.305Z,71.60
2018-05-14T00:39:46.404Z,70.60
2018-05-14T00:42:15.457Z,70.50
2018-05-14T00:44:43.737Z,70.40
2018-05-14T00:47:12.073Z,70.30
2018-05-14T00:49:41.126Z,69.90
2018-05-14T00:52:09.404Z,69.90
2018-05-14T00:54:37.739Z,70.00
2018-05-14T00:57:06.241Z,69.60
2018-05-14T00:59:34.525Z,69.80
2018-05-14T01:02:04.320Z,69.60
2018-05-14T01:04:32.946Z,69.60
2018-05-14T01:07:01.232Z,69.60
2018-05-14T01:09:29.504Z,69.50
2018-05-14T01:11:57.840Z,69.20
2018-05-14T01:14:26.921Z,69.00
2018-05-14T01:16:55.213Z,68.90
2018-05-14T01:19:23.545Z,69.30
2018-05-14T01:21:51.825Z,69.10
2018-05-14T01:24:20.937Z,69.90
2018-05-14T01:26:50.045Z,70.40
2018-05-14T01:29:19.118Z,70.00
2018-05-14T01:31:47.450Z,70.00
2018-05-14T01:34:16.537Z,69.50
2018-05-14T01:36:45.589Z,69.40
2018-05-14T01:39:13.918Z,69.30
2018-05-14T01:41:42.305Z,70.50
2018-05-14T01:44:10.650Z,69.60
2018-05-14T01:46:38.929Z,70.10
2018-05-14T01:49:07.364Z,70.80
2018-05-14T01:51:35.642Z,71.00
2018-05-14T01:57:02.763Z,71.20
2018-05-14T01:59:31.090Z,72.30
2018-05-14T02:01:59.441Z,72.50
2018-05-14T02:04:27.736Z,72.20
2018-05-14T02:06:56.453Z,74.10
2018-05-14T02:09:24.724Z,74.10
2018-05-14T02:11:53.015Z,74.30
2018-05-14T02:14:21.345Z,75.60
2018-05-14T02:16:49.635Z,75.90
2018-05-14T02:19:17.978Z,75.30
2018-05-14T02:21:46.302Z,75.50
2018-05-14T02:24:15.358Z,74.70
2018-05-14T02:26:43.678Z,74.70
2018-05-14T02:29:11.965Z,74.50
2018-05-14T02:31:40.292Z,74.50
2018-05-14T02:34:08.583Z,75.60
2018-05-14T02:36:36.910Z,76.40
2018-05-14T02:39:06.012Z,76.50
2018-05-14T02:41:34.310Z,76.70
2018-05-14T02:44:02.608Z,77.20
2018-05-14T02:46:30.936Z,77.10
2018-05-14T02:48:59.233Z,77.60
2018-05-14T02:51:27.558Z,76.90
2018-05-14T02:53:55.861Z,76.40
2018-05-14T02:56:24.261Z,76.90
2018-05-14T02:58:52.601Z,77.30
2018-05-14T03:01:20.882Z,78.00
2018-05-14T03:03:49.214Z,78.80
2018-05-14T03:06:17.708Z,78.70
2018-05-14T03:08:45.998Z,78.60
2018-05-14T03:11:14.422Z,78.70
2018-05-14T03:13:43.530Z,77.90
2018-05-14T03:16:12.626Z,78.50
2018-05-14T03:18:40.928Z,78.50
2018-05-14T03:21:09.606Z,78.90
2018-05-14T03:23:37.889Z,78.80
2018-05-14T03:26:06.172Z,79.00
2018-05-14T03:28:34.573Z,79.30
2018-05-14T03:31:02.903Z,79.10
2018-05-14T03:33:31.189Z,79.20
2018-05-14T03:35:59.483Z,79.10
2018-05-14T03:38:27.813Z,79.30
2018-05-14T03:40:56.129Z,79.80
2018-05-14T03:43:24.513Z,78.90
2018-05-14T03:45:52.861Z,78.60
2018-05-14T03:48:21.182Z,78.10
2018-05-14T03:50:49.680Z,78.20
2018-05-14T03:53:17.973Z,77.40
2018-05-14T03:55:46.262Z,76.60
2018-05-14T03:58:26.426Z,76.30
2018-05-14T04:04:12.273Z,74.40
2018-05-14T04:06:40.602Z,74.40
2018-05-14T04:09:08.930Z,73.90
2018-05-14T04:11:37.261Z,73.80
2018-05-14T04:14:06.351Z,72.90
2018-05-14T04:16:34.861Z,72.80
2018-05-14T04:19:03.237Z,72.90
2018-05-14T04:21:31.693Z,71.90
2018-05-14T04:24:00.013Z,70.80
2018-05-14T04:26:28.341Z,70.30
2018-05-14T04:28:56.684Z,69.70
2018-05-14T04:31:24.967Z,70.20
2018-05-14T04:33:53.290Z,70.60
2018-05-14T04:36:21.564Z,71.30
2018-05-14T04:38:49.984Z,72.10
2018-05-14T04:41:19.072Z,71.90
2018-05-14T04:43:47.353Z,71.90
2018-05-14T04:46:15.636Z,71.40
2018-05-14T04:48:43.973Z,71.40
2018-05-14T04:51:12.288Z,71.70
2018-05-14T04:53:40.568Z,71.70
2018-05-14T04:56:09.069Z,71.70
2018-05-14T04:58:37.388Z,71.80
2018-05-14T05:01:05.678Z,70.90
2018-05-14T05:03:34.077Z,71.60
2018-05-14T05:06:03.875Z,70.70
2018-05-14T05:08:32.193Z,70.70
2018-05-14T05:11:00.474Z,71.40
2018-05-14T05:13:28.790Z,71.60
2018-05-14T05:15:57.842Z,72.00
2018-05-14T05:18:26.266Z,72.00
2018-05-14T05:20:54.957Z,71.40
2018-05-14T05:23:23.242Z,71.20
2018-05-14T05:25:52.287Z,71.70
2018-05-14T05:28:21.435Z,72.10
2018-05-14T05:30:50.449Z,71.50
2018-05-14T05:33:18.745Z,71.40
2018-05-14T05:35:47.058Z,71.10
2018-05-14T05:38:15.342Z,70.20
2018-05-14T05:40:43.662Z,70.40
2018-05-14T05:43:12.751Z,70.20
2018-05-14T05:45:41.134Z,70.30
2018-05-14T05:48:09.417Z,70.50
2018-05-14T05:50:37.746Z,69.00
2018-05-14T05:53:06.805Z,69.10
2018-05-14T05:55:35.090Z,68.40
2018-05-14T05:58:03.411Z,70.20
2018-05-14T06:00:33.206Z,68.90
2018-05-14T06:03:01.527Z,68.80
2018-05-14T06:05:29.842Z,69.20
2018-05-14T06:07:58.157Z,69.10
2018-05-14T06:10:26.477Z,68.30
2018-05-14T06:12:54.759Z,68.70
2018-05-14T06:15:23.149Z,69.30
2018-05-14T06:17:52.165Z,66.90
2018-05-14T06:20:20.549Z,67.00
2018-05-14T06:22:48.873Z,66.80
2018-05-14T06:25:17.242Z,66.80
2018-05-14T06:27:45.600Z,67.00
2018-05-14T06:30:13.878Z,66.30
2018-05-14T06:32:42.194Z,66.70
2018-05-14T06:35:10.517Z,65.20
2018-05-14T06:37:39.575Z,65.60
2018-05-14T06:40:07.862Z,65.50
2018-05-14T06:42:36.586Z,66.40
2018-05-14T06:45:04.894Z,65.10
2018-05-14T06:47:33.177Z,64.30
2018-05-14T06:50:01.517Z,63.30
2018-05-14T06:52:29.810Z,63.50
2018-05-14T06:54:58.127Z,62.10
2018-05-14T06:57:26.421Z,61.70
2018-05-14T06:59:54.702Z,63.00
2018-05-14T07:02:23.020Z,62.10
2018-05-14T07:04:51.392Z,63.20
2018-05-14T07:07:19.677Z,62.90
2018-05-14T07:09:47.960Z,61.80
2018-05-14T07:12:16.360Z,60.80
2018-05-14T07:14:44.657Z,60.30
2018-05-14T07:17:14.561Z,62.60
2018-05-14T07:19:42.878Z,62.50
2018-05-14T07:22:11.195Z,60.40
2018-05-14T07:24:40.252Z,59.70
2018-05-14T07:27:08.578Z,59.70
2018-05-14T07:29:37.660Z,61.30
2018-05-14T07:32:05.993Z,61.30
2018-05-14T07:34:35.041Z,60.30
2018-05-14T07:37:03.660Z,60.30
2018-05-14T07:39:31.945Z,58.70
2018-05-14T07:42:00.221Z,59.20
2018-05-14T07:44:28.546Z,58.90
2018-05-14T07:46:56.833Z,59.50
2018-05-14T07:49:25.916Z,59.90
2018-05-14T07:51:54.209Z,59.30
2018-05-14T07:54:22.958Z,59.10
2018-05-14T07:56:51.204Z,56.10
2018-05-14T07:59:20.064Z,58.20
2018-05-14T08:01:48.705Z,57.30
2018-05-14T08:04:16.991Z,57.20
2018-05-14T08:06:45.282Z,57.10
2018-05-14T08:09:13.601Z,57.20
2018-05-14T08:11:42.710Z,55.20
2018-05-14T08:14:10.955Z,55.10
2018-05-14T08:16:39.670Z,56.60
2018-05-14T08:19:07.953Z,54.70
2018-05-14T08:21:36.265Z,53.20
2018-05-14T08:24:05.344Z,50.20
2018-05-14T08:26:33.632Z,49.60
2018-05-14T08:29:01.949Z,48.30
2018-05-14T08:31:30.296Z,48.00
2018-05-14T08:33:59.306Z,49.60
2018-05-14T08:36:27.616Z,49.60
2018-05-14T08:38:55.901Z,49.10
2018-05-14T08:41:24.221Z,48.30
2018-05-14T08:43:53.286Z,47.60
2018-05-14T08:46:21.613Z,47.70
2018-05-14T08:48:49.901Z,46.90
2018-05-14T08:51:18.233Z,46.70
2018-05-14T08:53:46.573Z,44.30
2018-05-14T08:56:14.858Z,46.70
2018-05-14T08:58:43.194Z,44.80
2018-05-14T09:01:11.489Z,44.70
2018-05-14T09:03:39.775Z,40.30
2018-05-14T09:06:08.106Z,41.30
2018-05-14T09:08:37.504Z,38.60
2018-05-14T09:11:05.773Z,39.80
2018-05-14T09:13:34.104Z,39.20
2018-05-14T09:16:02.493Z,39.70
2018-05-14T09:18:30.817Z,39.10
2018-05-14T09:20:59.869Z,40.30
2018-05-14T09:23:28.209Z,40.30
2018-05-14T09:25:57.271Z,35.60
2018-05-14T09:28:25.558Z,35.50
2018-05-14T09:30:54.081Z,36.20
2018-05-14T09:33:22.369Z,36.50
2018-05-14T09:35:50.753Z,36.10
2018-05-14T09:38:19.084Z,36.80
2018-05-14T09:40:47.424Z,39.20
2018-05-14T09:43:15.713Z,37.40
2018-05-14T09:45:44.017Z,38.00
2018-05-14T09:48:12.362Z,38.10
2018-05-14T09:50:40.698Z,37.10
2018-05-14T09:53:09.029Z,34.80
2018-05-14T09:55:37.464Z,36.90
2018-05-14T09:58:05.747Z,36.20
2018-05-14T10:00:34.070Z,36.30
2018-05-14T10:03:02.393Z,40.50
2018-05-14T10:05:30.726Z,38.00
2018-05-14T10:07:59.009Z,36.80
2018-05-14T10:10:27.293Z,36.40
2018-05-14T10:12:55.705Z,37.50
2018-05-14T10:15:23.993Z,35.70
2018-05-14T10:17:52.280Z,34.30
2018-05-14T10:20:20.597Z,34.70
2018-05-14T10:22:49.665Z,34.40
2018-05-14T10:25:18.073Z,34.30
2018-05-14T10:27:46.358Z,33.30
2018-05-14T10:30:14.647Z,36.70
2018-05-14T10:32:42.969Z,36.60
2018-05-14T10:35:12.022Z,35.30
2018-05-14T10:37:40.344Z,35.30
2018-05-14T10:40:08.629Z,35.10
2018-05-14T10:42:36.964Z,33.70
2018-05-14T10:45:05.288Z,34.50
2018-05-14T10:47:33.617Z,33.00
2018-05-14T10:50:02.672Z,33.70
2018-05-14T10:52:30.952Z,33.60
2018-05-14T10:54:59.289Z,33.90
2018-05-14T10:57:27.585Z,31.90
2018-05-14T10:59:57.419Z,32.30
2018-05-14T11:02:26.505Z,32.90
2018-05-14T11:04:54.784Z,32.90
2018-05-14T11:07:23.113Z,33.00
2018-05-14T11:09:52.171Z,31.70
2018-05-14T11:12:20.492Z,31.60
2018-05-14T11:14:48.870Z,31.80
2018-05-14T11:17:17.262Z,30.10
2018-05-14T11:19:45.660Z,31.30
2018-05-14T11:22:13.982Z,31.90
2018-05-14T11:24:42.270Z,32.80
2018-05-14T11:27:10.618Z,31.40
2018-05-14T11:29:38.908Z,32.60
2018-05-14T11:32:07.281Z,31.70
2018-05-14T11:34:35.613Z,31.30
2018-05-14T11:37:03.888Z,31.30
2018-05-14T11:39:32.259Z,31.90
2018-05-14T11:42:00.761Z,31.50
2018-05-14T11:44:29.045Z,31.00
2018-05-14T11:46:57.333Z,32.40
2018-05-14T11:49:25.767Z,31.60
2018-05-14T11:51:54.034Z,31.60
2018-05-14T11:54:22.420Z,31.60
2018-05-14T11:56:50.750Z,33.10
2018-05-14T11:59:19.186Z,30.70
2018-05-14T12:01:47.463Z,33.50
2018-05-14T12:04:15.789Z,32.80
2018-05-14T12:06:44.169Z,34.10
2018-05-14T12:09:12.493Z,32.90
2018-05-14T12:11:41.549Z,31.30
2018-05-14T12:14:09.877Z,31.50
2018-05-14T12:16:38.989Z,34.10
2018-05-14T12:19:08.046Z,34.00
2018-05-14T12:21:36.334Z,34.00
2018-05-14T12:24:04.665Z,33.50
2018-05-14T12:26:32.985Z,33.50
2018-05-14T12:29:01.317Z,33.90
2018-05-14T12:31:29.601Z,35.50
2018-05-14T12:33:57.894Z,35.30
2018-05-14T12:36:26.226Z,32.90
2018-05-14T12:38:55.277Z,32.90
2018-05-14T12:41:23.601Z,32.80
2018-05-14T12:43:51.882Z,34.00
2018-05-14T12:46:20.170Z,32.00
2018-05-14T12:48:48.497Z,32.90
2018-05-14T12:51:17.567Z,33.80
2018-05-14T12:53:45.861Z,33.80
2018-05-14T12:56:14.183Z,33.40
2018-05-14T12:58:43.258Z,34.20
2018-05-14T13:01:11.585Z,33.70
2018-05-14T13:03:39.927Z,33.30
2018-05-14T13:06:08.221Z,32.70
2018-05-14T13:08:36.528Z,32.80
2018-05-14T13:11:05.005Z,33.30
2018-05-14T13:13:33.296Z,31.50
2018-05-14T13:16:01.590Z,31.60
2018-05-14T13:18:29.918Z,30.00
2018-05-14T13:20:58.240Z,32.60
2018-05-14T13:23:26.588Z,31.50
2018-05-14T13:25:55.635Z,31.60
2018-05-14T13:28:23.916Z,31.50
2018-05-14T13:30:52.247Z,30.40
2018-05-14T13:33:20.634Z,30.10
2018-05-14T13:35:50.458Z,32.10
2018-05-14T13:38:18.749Z,32.00
2018-05-14T13:40:47.073Z,33.10
2018-05-14T13:43:16.129Z,31.90
2018-05-14T13:45:44.426Z,31.80
2018-05-14T13:48:12.828Z,32.70
2018-05-14T13:50:41.105Z,32.80
2018-05-14T13:53:09.430Z,31.80
2018-05-14T13:55:38.907Z,35.00
2018-05-14T13:58:07.229Z,34.90
2018-05-14T14:00:36.289Z,31.00
2018-05-14T14:03:04.587Z,30.90
2018-05-14T14:05:32.922Z,32.40
2018-05-14T14:08:01.976Z,33.00
2018-05-14T14:10:30.304Z,32.90
2018-05-14T14:12:58.641Z,32.00
2018-05-14T14:15:26.974Z,32.50
2018-05-14T14:17:55.820Z,31.90
2018-05-14T14:20:24.117Z,32.40
2018-05-14T14:22:52.448Z,33.20
2018-05-14T14:25:20.741Z,35.00
2018-05-14T14:27:49.078Z,34.10
2018-05-14T14:30:17.418Z,33.20
2018-05-14T14:32:45.713Z,34.10
2018-05-14T14:35:13.997Z,33.40
2018-05-14T14:37:42.328Z,32.90
2018-05-14T14:40:11.386Z,32.40
2018-05-14T14:42:39.714Z,32.40
2018-05-14T14:45:08.779Z,31.10
2018-05-14T14:47:37.106Z,31.10
2018-05-14T14:50:06.300Z,32.00
2018-05-14T14:52:34.663Z,31.30
2018-05-14T14:55:03.144Z,32.20
2018-05-14T14:57:31.457Z,31.60
2018-05-14T14:59:59.890Z,31.20
2018-05-14T15:02:29.212Z,31.30
2018-05-14T15:04:57.526Z,31.20
2018-05-14T15:07:26.069Z,31.90
2018-05-14T15:09:54.353Z,31.90
2018-05-14T15:12:22.685Z,31.30
2018-05-14T15:14:51.039Z,30.50
2018-05-14T15:17:19.356Z,30.90
2018-05-14T15:19:48.450Z,28.70
2018-05-14T15:22:16.821Z,28.60
2018-05-14T15:24:45.213Z,27.70
2018-05-14T15:27:13.503Z,27.80
2018-05-14T15:29:41.925Z,28.10
2018-05-14T15:32:10.293Z,28.50
2018-05-14T15:34:38.875Z,28.30
2018-05-14T15:37:07.190Z,29.20
2018-05-14T15:39:36.302Z,28.10
2018-05-14T15:42:05.436Z,28.00
2018-05-14T15:44:33.735Z,28.10
2018-05-14T15:47:02.342Z,27.50
2018-05-14T15:49:30.634Z,28.20
2018-05-14T15:51:58.935Z,26.80
2018-05-14T15:54:28.266Z,26.90
2018-05-14T15:56:56.596Z,27.20
2018-05-14T15:59:24.887Z,27.00
2018-05-14T16:01:53.200Z,26.80
2018-05-14T16:04:21.533Z,26.20
2018-05-14T16:06:49.830Z,28.00
2018-05-14T16:09:18.125Z,27.70
2018-05-14T16:11:46.506Z,26.60
2018-05-14T16:14:14.986Z,26.70
2018-05-14T16:16:43.501Z,26.80
2018-05-14T16:19:12.565Z,30.10
2018-05-14T16:21:40.853Z,30.00
2018-05-14T16:24:09.182Z,28.10
2018-05-14T16:26:37.581Z,28.00
2018-05-14T16:29:05.864Z,27.90
2018-05-14T16:31:34.965Z,26.40
2018-05-14T16:34:03.262Z,26.30
2018-05-14T16:36:31.544Z,26.10
2018-05-14T16:38:59.877Z,27.10
2018-05-14T16:41:28.164Z,29.10
2018-05-14T16:43:56.488Z,30.10
2018-05-14T16:46:24.818Z,31.90
2018-05-14T16:48:54.316Z,32.30
2018-05-14T16:51:22.607Z,32.30
2018-05-14T16:53:50.977Z,32.40
2018-05-14T16:56:19.305Z,32.80
2018-05-14T16:58:48.616Z,33.20
2018-05-14T17:01:17.679Z,33.40
2018-05-14T17:03:46.097Z,33.30
2018-05-14T17:06:15.188Z,35.00
2018-05-14T17:08:43.464Z,34.90
2018-05-14T17:11:11.868Z,35.90
2018-05-14T17:13:40.201Z,35.60
2018-05-14T17:16:09.256Z,36.40
2018-05-14T17:18:37.545Z,36.40
2018-05-14T17:21:06.175Z,36.20
2018-05-14T17:23:34.589Z,38.40
2018-05-14T17:26:03.638Z,38.90
2018-05-14T17:28:31.967Z,38.70
2018-05-14T17:31:01.052Z,37.80
2018-05-14T17:33:29.360Z,37.70
2018-05-14T17:35:57.892Z,37.40
2018-05-14T17:38:26.276Z,38.30
2018-05-14T17:40:56.305Z,39.00
2018-05-14T17:43:25.473Z,39.10
2018-05-14T17:45:53.842Z,39.10
2018-05-14T17:48:22.238Z,38.70
2018-05-14T17:50:50.534Z,38.00
2018-05-14T17:53:18.879Z,38.40
2018-05-14T17:55:48.069Z,39.80
2018-05-14T17:58:16.354Z,39.80
2018-05-14T18:00:44.739Z,39.30
2018-05-14T18:03:13.035Z,39.10
2018-05-14T18:05:41.386Z,39.10
2018-05-14T18:08:10.021Z,40.30
2018-05-14T18:10:38.424Z,40.20
2018-05-14T18:13:06.895Z,40.20
2018-05-14T18:15:35.213Z,40.30
2018-05-14T18:18:05.179Z,41.10
2018-05-14T18:20:45.431Z,41.00
2018-05-14T18:23:19.553Z,41.80
2018-05-14T18:25:53.544Z,41.80
2018-05-14T18:31:22.814Z,42.60
2018-05-14T18:33:54.035Z,42.70
2018-05-14T18:36:23.143Z,42.60
2018-05-14T18:38:51.486Z,43.00
2018-05-14T18:41:19.865Z,43.00
2018-05-14T18:43:49.030Z,43.60
2018-05-14T18:46:17.314Z,43.60
2018-05-14T18:48:45.699Z,43.80
2018-05-14T18:51:14.069Z,44.30
2018-05-14T18:53:42.851Z,44.80
2018-05-14T18:56:11.238Z,44.80
2018-05-14T18:58:39.534Z,45.20
2018-05-14T19:01:07.878Z,45.20
2018-05-14T19:03:36.206Z,46.00
2018-05-14T19:06:04.558Z,46.00
2018-05-14T19:08:34.385Z,46.20
2018-05-14T19:11:08.463Z,46.20
2018-05-14T19:13:36.801Z,47.60
2018-05-14T19:16:10.891Z,47.40
2018-05-14T19:18:39.319Z,47.00
2018-05-14T19:21:08.342Z,48.10
2018-05-14T19:23:43.169Z,48.30
2018-05-14T19:26:11.499Z,48.30
2018-05-14T19:28:45.456Z,49.00
2018-05-14T19:31:13.741Z,48.90
2018-05-14T19:33:47.947Z,49.10
2018-05-14T19:36:16.232Z,49.70
2018-05-14T19:38:44.539Z,49.80
2018-05-14T19:41:12.960Z,50.10
2018-05-14T19:43:41.288Z,50.90
2018-05-14T19:46:10.346Z,51.40
2018-05-14T19:48:38.644Z,51.30
2018-05-14T19:51:07.856Z,51.20
2018-05-14T19:53:37.744Z,51.30
2018-05-14T19:56:06.006Z,51.20
2018-05-14T19:58:35.062Z,51.30
2018-05-14T20:01:03.459Z,51.20
2018-05-14T20:03:32.506Z,51.30
2018-05-14T20:06:01.590Z,51.30
2018-05-14T20:08:29.870Z,51.30
2018-05-14T20:10:58.206Z,51.30
2018-05-14T20:13:26.561Z,52.50
2018-05-14T20:15:54.849Z,52.10
2018-05-14T20:18:23.182Z,52.40
2018-05-14T20:20:51.481Z,53.50
2018-05-14T20:23:19.817Z,53.80
2018-05-14T20:25:48.136Z,54.10
2018-05-14T20:28:16.506Z,54.60
2018-05-14T20:30:44.990Z,55.10
2018-05-14T20:33:13.272Z,55.10
2018-05-14T20:35:41.581Z,55.60
2018-05-14T20:38:11.426Z,56.40
2018-05-14T20:40:40.490Z,56.20
2018-05-14T20:43:08.822Z,56.20
2018-05-14T20:45:37.876Z,56.70
2018-05-14T20:48:06.178Z,56.70
2018-05-14T20:50:34.577Z,56.60
2018-05-14T20:53:02.865Z,57.20
2018-05-14T20:55:31.266Z,57.50
2018-05-14T20:57:59.545Z,56.70
2018-05-14T21:00:27.834Z,57.50
2018-05-14T21:02:56.230Z,57.70
2018-05-14T21:05:24.512Z,57.60
2018-05-14T21:07:58.181Z,57.80
2018-05-14T21:10:26.470Z,58.10
2018-05-14T21:12:54.758Z,58.80
2018-05-14T21:15:23.088Z,58.30
2018-05-14T21:17:51.388Z,58.70
2018-05-14T21:20:19.684Z,59.30
2018-05-14T21:22:48.004Z,60.40
2018-05-14T21:25:17.059Z,60.80
2018-05-14T21:27:45.571Z,60.90
2018-05-14T21:30:13.854Z,61.80
2018-05-14T21:32:42.151Z,62.50
2018-05-14T21:35:10.487Z,62.30
2018-05-14T21:37:38.838Z,62.20
2018-05-14T21:40:07.091Z,62.60
2018-05-14T21:42:35.417Z,62.90
2018-05-14T21:45:04.469Z,63.30
2018-05-14T21:47:32.806Z,63.30
2018-05-14T21:50:01.102Z,63.30
2018-05-14T21:52:29.437Z,64.10
2018-05-14T21:54:57.777Z,65.00
2018-05-14T21:57:26.160Z,65.00
2018-05-14T21:59:54.514Z,65.80
2018-05-14T22:02:22.836Z,66.30
2018-05-14T22:04:51.125Z,66.30
2018-05-14T22:07:19.426Z,66.80
2018-05-14T22:09:47.905Z,67.80
2018-05-14T22:12:16.198Z,68.80
2018-05-14T22:14:44.480Z,69.40
2018-05-14T22:17:12.810Z,69.30
2018-05-14T22:19:42.305Z,70.00
2018-05-14T22:22:12.113Z,70.30
2018-05-14T22:24:40.417Z,70.30
2018-05-14T22:27:08.910Z,70.80
2018-05-14T22:29:37.200Z,71.00
2018-05-14T22:32:05.494Z,71.50
2018-05-14T22:34:33.817Z,71.80
2018-05-14T22:37:02.160Z,72.10
2018-05-14T22:39:30.482Z,71.90
2018-05-14T22:41:59.670Z,72.00
2018-05-14T22:44:28.002Z,71.90
2018-05-14T22:46:56.349Z,72.30
2018-05-14T22:49:24.845Z,71.60
2018-05-14T22:51:53.139Z,71.70
2018-05-14T22:54:33.645Z,72.70
2018-05-14T22:57:02.699Z,73.60
2018-05-14T22:59:30.980Z,73.60
2018-05-14T23:01:59.338Z,74.10
2018-05-14T23:04:27.686Z,74.70
2018-05-14T23:06:55.983Z,74.30
2018-05-14T23:09:24.277Z,73.80
2018-05-14T23:11:52.610Z,72.90
2018-05-14T23:14:20.896Z,73.00
2018-05-14T23:16:49.220Z,72.80
2018-05-14T23:19:17.514Z,72.90
2018-05-14T23:21:45.850Z,72.90
2018-05-14T23:24:14.180Z,72.90
2018-05-14T23:26:42.489Z,72.50
2018-05-14T23:29:10.878Z,72.30
2018-05-14T23:31:39.182Z,72.80
2018-05-14T23:34:07.518Z,72.70
2018-05-14T23:36:35.849Z,73.30
2018-05-14T23:39:04.247Z,74.10
2018-05-14T23:41:32.542Z,74.60
2018-05-14T23:44:01.230Z,74.80
2018-05-14T23:46:29.623Z,75.50
2018-05-14T23:48:57.922Z,75.60
2018-05-14T23:51:26.405Z,75.80
2018-05-14T23:53:54.697Z,75.50
2018-05-14T23:56:22.989Z,75.00
2018-05-14T23:58:51.370Z,75.10
